sensor_id;sensor_type;location;lat;lon;timestamp;temperature;humidity
58809;DHT22;44579;51.672;7.834;2023-03-14T00:00:10;11.50;78.20
58809;DHT22;44579;51.672;7.834;2023-03-14T00:02:37;11.50;78.20
58809;DHT22;44579;51.672;7.834;2023-03-14T00:05:04;11.50;78.20
58809;DHT22;44579;51.672;7.834;2023-03-14T00:07:33;11.50;78.30
58809;DHT22;44579;51.672;7.834;2023-03-14T00:10:03;11.50;78.30
58809;DHT22;44579;51.672;7.834;2023-03-14T00:12:31;11.40;78.30
58809;DHT22;44579;51.672;7.834;2023-03-14T00:14:58;11.40;78.30
58809;DHT22;44579;51.672;7.834;2023-03-14T00:17:26;11.40;78.30
58809;DHT22;44579;51.672;7.834;2023-03-14T00:19:53;11.40;78.30
58809;DHT22;44579;51.672;7.834;2023-03-14T00:22:21;11.30;78.30
58809;DHT22;44579;51.672;7.834;2023-03-14T00:24:48;11.30;78.30
58809;DHT22;44579;51.672;7.834;2023-03-14T00:27:15;11.30;78.40
58809;DHT22;44579;51.672;7.834;2023-03-14T00:29:42;11.40;78.50
58809;DHT22;44579;51.672;7.834;2023-03-14T00:32:09;11.40;78.40
58809;DHT22;44579;51.672;7.834;2023-03-14T00:34:39;11.40;78.50
58809;DHT22;44579;51.672;7.834;2023-03-14T00:37:06;11.40;78.50
58809;DHT22;44579;51.672;7.834;2023-03-14T00:39:33;11.30;78.50
58809;DHT22;44579;51.672;7.834;2023-03-14T00:41:59;11.30;78.60
58809;DHT22;44579;51.672;7.834;2023-03-14T00:44:28;11.30;78.60
58809;DHT22;44579;51.672;7.834;2023-03-14T00:46:55;11.30;78.70
58809;DHT22;44579;51.672;7.834;2023-03-14T00:49:21;11.30;78.60
58809;DHT22;44579;51.672;7.834;2023-03-14T00:51:50;11.30;78.60
58809;DHT22;44579;51.672;7.834;2023-03-14T00:54:18;11.30;78.60
58809;DHT22;44579;51.672;7.834;2023-03-14T00:56:45;11.30;78.60
58809;DHT22;44579;51.672;7.834;2023-03-14T00:59:12;11.30;78.60
58809;DHT22;44579;51.672;7.834;2023-03-14T01:01:39;11.30;78.60
58809;DHT22;44579;51.672;7.834;2023-03-14T01:04:06;11.30;78.60
58809;DHT22;44579;51.672;7.834;2023-03-14T01:06:33;11.30;78.60
58809;DHT22;44579;51.672;7.834;2023-03-14T01:09:00;11.30;78.60
58809;DHT22;44579;51.672;7.834;2023-03-14T01:11:28;11.40;78.60
58809;DHT22;44579;51.672;7.834;2023-03-14T01:13:57;11.40;78.60
58809;DHT22;44579;51.672;7.834;2023-03-14T01:16:28;11.40;78.60
58809;DHT22;44579;51.672;7.834;2023-03-14T01:18:59;11.50;78.60
58809;DHT22;44579;51.672;7.834;2023-03-14T01:21:26;11.50;78.70
58809;DHT22;44579;51.672;7.834;2023-03-14T01:23:54;11.50;78.80
58809;DHT22;44579;51.672;7.834;2023-03-14T01:26:22;11.50;78.70
58809;DHT22;44579;51.672;7.834;2023-03-14T01:28:49;11.60;78.80
58809;DHT22;44579;51.672;7.834;2023-03-14T01:31:17;11.60;78.80
58809;DHT22;44579;51.672;7.834;2023-03-14T01:33:44;11.60;78.80
58809;DHT22;44579;51.672;7.834;2023-03-14T01:36:12;11.60;78.80
58809;DHT22;44579;51.672;7.834;2023-03-14T01:38:41;11.70;78.90
58809;DHT22;44579;51.672;7.834;2023-03-14T01:41:15;11.70;78.90
58809;DHT22;44579;51.672;7.834;2023-03-14T01:43:43;11.80;79.00
58809;DHT22;44579;51.672;7.834;2023-03-14T01:46:17;11.70;78.90
58809;DHT22;44579;51.672;7.834;2023-03-14T01:51:29;11.40;79.10
58809;DHT22;44579;51.672;7.834;2023-03-14T01:54:02;11.30;79.30
58809;DHT22;44579;51.672;7.834;2023-03-14T01:56:31;11.20;79.50
58809;DHT22;44579;51.672;7.834;2023-03-14T01:58:58;11.00;79.50
58809;DHT22;44579;51.672;7.834;2023-03-14T02:01:25;10.90;79.70
58809;DHT22;44579;51.672;7.834;2023-03-14T02:03:56;10.80;79.80
58809;DHT22;44579;51.672;7.834;2023-03-14T02:06:27;10.70;79.90
58809;DHT22;44579;51.672;7.834;2023-03-14T02:08:59;10.70;80.10
58809;DHT22;44579;51.672;7.834;2023-03-14T02:11:30;10.60;80.10
58809;DHT22;44579;51.672;7.834;2023-03-14T02:14:03;10.60;80.10
58809;DHT22;44579;51.672;7.834;2023-03-14T02:16:54;10.60;80.20
58809;DHT22;44579;51.672;7.834;2023-03-14T02:22:21;10.60;80.20
58809;DHT22;44579;51.672;7.834;2023-03-14T02:27:26;10.50;80.20
58809;DHT22;44579;51.672;7.834;2023-03-14T02:32:20;10.40;80.40
58809;DHT22;44579;51.672;7.834;2023-03-14T02:34:49;10.30;80.30
58809;DHT22;44579;51.672;7.834;2023-03-14T02:37:17;10.30;80.40
58809;DHT22;44579;51.672;7.834;2023-03-14T02:39:46;10.20;80.40
58809;DHT22;44579;51.672;7.834;2023-03-14T02:42:16;10.20;80.50
58809;DHT22;44579;51.672;7.834;2023-03-14T02:44:48;10.20;80.60
58809;DHT22;44579;51.672;7.834;2023-03-14T02:47:14;10.10;80.50
58809;DHT22;44579;51.672;7.834;2023-03-14T02:49:41;10.10;80.70
58809;DHT22;44579;51.672;7.834;2023-03-14T02:52:09;10.10;80.60
58809;DHT22;44579;51.672;7.834;2023-03-14T02:54:36;10.10;80.60
58809;DHT22;44579;51.672;7.834;2023-03-14T02:57:03;10.10;80.70
58809;DHT22;44579;51.672;7.834;2023-03-14T02:59:30;10.10;80.70
58809;DHT22;44579;51.672;7.834;2023-03-14T03:02:01;10.20;80.80
58809;DHT22;44579;51.672;7.834;2023-03-14T03:04:27;10.20;80.80
58809;DHT22;44579;51.672;7.834;2023-03-14T03:06:54;10.20;80.70
58809;DHT22;44579;51.672;7.834;2023-03-14T03:09:21;10.20;80.70
58809;DHT22;44579;51.672;7.834;2023-03-14T03:11:50;10.20;80.60
58809;DHT22;44579;51.672;7.834;2023-03-14T03:14:21;10.30;80.70
58809;DHT22;44579;51.672;7.834;2023-03-14T03:16:48;10.30;80.70
58809;DHT22;44579;51.672;7.834;2023-03-14T03:19:15;10.30;80.70
58809;DHT22;44579;51.672;7.834;2023-03-14T03:21:42;10.30;80.70
58809;DHT22;44579;51.672;7.834;2023-03-14T03:24:11;10.40;80.70
58809;DHT22;44579;51.672;7.834;2023-03-14T03:26:38;10.40;80.60
58809;DHT22;44579;51.672;7.834;2023-03-14T03:29:07;10.40;80.60
58809;DHT22;44579;51.672;7.834;2023-03-14T03:31:36;10.40;80.70
58809;DHT22;44579;51.672;7.834;2023-03-14T03:34:03;10.40;80.70
58809;DHT22;44579;51.672;7.834;2023-03-14T03:36:30;10.40;80.70
58809;DHT22;44579;51.672;7.834;2023-03-14T03:38:58;10.40;80.70
58809;DHT22;44579;51.672;7.834;2023-03-14T03:41:25;10.40;80.70
58809;DHT22;44579;51.672;7.834;2023-03-14T03:43:52;10.40;80.70
58809;DHT22;44579;51.672;7.834;2023-03-14T03:46:20;10.40;80.70
58809;DHT22;44579;51.672;7.834;2023-03-14T03:48:53;10.40;80.80
58809;DHT22;44579;51.672;7.834;2023-03-14T03:51:20;10.40;80.90
58809;DHT22;44579;51.672;7.834;2023-03-14T03:53:49;10.30;80.90
58809;DHT22;44579;51.672;7.834;2023-03-14T03:56:21;10.40;81.00
58809;DHT22;44579;51.672;7.834;2023-03-14T03:58:49;10.30;80.90
58809;DHT22;44579;51.672;7.834;2023-03-14T04:01:16;10.30;81.00
58809;DHT22;44579;51.672;7.834;2023-03-14T04:03:46;10.30;81.00
58809;DHT22;44579;51.672;7.834;2023-03-14T04:06:14;10.30;81.00
58809;DHT22;44579;51.672;7.834;2023-03-14T04:08:44;10.20;80.90
58809;DHT22;44579;51.672;7.834;2023-03-14T04:11:24;10.20;81.00
58809;DHT22;44579;51.672;7.834;2023-03-14T04:13:55;10.20;81.10
58809;DHT22;44579;51.672;7.834;2023-03-14T04:16:23;10.20;81.10
58809;DHT22;44579;51.672;7.834;2023-03-14T04:18:54;10.20;81.10
58809;DHT22;44579;51.672;7.834;2023-03-14T04:21:22;10.20;81.00
58809;DHT22;44579;51.672;7.834;2023-03-14T04:23:54;10.10;80.90
58809;DHT22;44579;51.672;7.834;2023-03-14T04:26:24;10.10;80.90
58809;DHT22;44579;51.672;7.834;2023-03-14T04:28:50;10.10;81.00
58809;DHT22;44579;51.672;7.834;2023-03-14T04:31:20;10.10;80.90
58809;DHT22;44579;51.672;7.834;2023-03-14T04:33:48;10.10;81.00
58809;DHT22;44579;51.672;7.834;2023-03-14T04:36:22;10.10;81.10
58809;DHT22;44579;51.672;7.834;2023-03-14T04:38:49;10.10;81.10
58809;DHT22;44579;51.672;7.834;2023-03-14T04:41:19;10.20;81.10
58809;DHT22;44579;51.672;7.834;2023-03-14T04:43:46;10.20;81.00
58809;DHT22;44579;51.672;7.834;2023-03-14T04:46:13;10.30;81.00
58809;DHT22;44579;51.672;7.834;2023-03-14T04:48:41;10.20;81.00
58809;DHT22;44579;51.672;7.834;2023-03-14T04:51:08;10.30;81.10
58809;DHT22;44579;51.672;7.834;2023-03-14T04:53:35;10.30;81.20
58809;DHT22;44579;51.672;7.834;2023-03-14T04:56:07;10.30;81.30
58809;DHT22;44579;51.672;7.834;2023-03-14T04:58:38;10.20;81.30
58809;DHT22;44579;51.672;7.834;2023-03-14T05:01:06;10.30;81.40
58809;DHT22;44579;51.672;7.834;2023-03-14T05:03:41;10.20;81.40
58809;DHT22;44579;51.672;7.834;2023-03-14T05:06:27;10.30;81.60
58809;DHT22;44579;51.672;7.834;2023-03-14T05:09:22;10.30;82.60
58809;DHT22;44579;51.672;7.834;2023-03-14T05:12:07;10.20;81.80
58809;DHT22;44579;51.672;7.834;2023-03-14T05:15:01;10.20;81.90
58809;DHT22;44579;51.672;7.834;2023-03-14T05:17:41;10.20;82.00
58809;DHT22;44579;51.672;7.834;2023-03-14T05:20:34;10.20;82.10
58809;DHT22;44579;51.672;7.834;2023-03-14T05:23:19;10.10;82.00
58809;DHT22;44579;51.672;7.834;2023-03-14T05:26:21;10.00;82.10
58809;DHT22;44579;51.672;7.834;2023-03-14T05:28:59;10.00;82.40
58809;DHT22;44579;51.672;7.834;2023-03-14T05:31:48;9.90;82.40
58809;DHT22;44579;51.672;7.834;2023-03-14T05:34:44;9.90;82.40
58809;DHT22;44579;51.672;7.834;2023-03-14T05:37:46;9.80;82.30
58809;DHT22;44579;51.672;7.834;2023-03-14T05:40:16;9.80;82.30
58809;DHT22;44579;51.672;7.834;2023-03-14T05:43:06;9.80;82.30
58809;DHT22;44579;51.672;7.834;2023-03-14T05:46:00;9.70;82.30
58809;DHT22;44579;51.672;7.834;2023-03-14T05:48:27;9.70;82.40
58809;DHT22;44579;51.672;7.834;2023-03-14T05:51:07;9.70;82.50
58809;DHT22;44579;51.672;7.834;2023-03-14T05:53:49;9.70;82.50
58809;DHT22;44579;51.672;7.834;2023-03-14T05:56:35;9.60;82.60
58809;DHT22;44579;51.672;7.834;2023-03-14T05:59:10;9.60;82.60
58809;DHT22;44579;51.672;7.834;2023-03-14T06:01:56;9.60;82.60
58809;DHT22;44579;51.672;7.834;2023-03-14T06:04:26;9.60;82.60
58809;DHT22;44579;51.672;7.834;2023-03-14T06:06:57;9.60;82.50
58809;DHT22;44579;51.672;7.834;2023-03-14T06:09:24;9.60;82.50
58809;DHT22;44579;51.672;7.834;2023-03-14T06:11:55;9.60;82.40
58809;DHT22;44579;51.672;7.834;2023-03-14T06:14:22;9.60;82.50
58809;DHT22;44579;51.672;7.834;2023-03-14T06:16:50;9.60;82.60
58809;DHT22;44579;51.672;7.834;2023-03-14T06:19:19;9.60;82.50
58809;DHT22;44579;51.672;7.834;2023-03-14T06:21:46;9.60;82.50
58809;DHT22;44579;51.672;7.834;2023-03-14T06:24:14;9.60;82.40
58809;DHT22;44579;51.672;7.834;2023-03-14T06:26:46;9.60;82.40
58809;DHT22;44579;51.672;7.834;2023-03-14T06:29:13;9.70;82.40
58809;DHT22;44579;51.672;7.834;2023-03-14T06:31:40;9.70;82.40
58809;DHT22;44579;51.672;7.834;2023-03-14T06:34:08;9.60;82.30
58809;DHT22;44579;51.672;7.834;2023-03-14T06:36:35;9.60;82.40
58809;DHT22;44579;51.672;7.834;2023-03-14T06:39:02;9.70;82.50
58809;DHT22;44579;51.672;7.834;2023-03-14T06:41:31;9.70;82.40
58809;DHT22;44579;51.672;7.834;2023-03-14T06:43:59;9.70;82.40
58809;DHT22;44579;51.672;7.834;2023-03-14T06:46:26;9.70;82.40
58809;DHT22;44579;51.672;7.834;2023-03-14T06:48:53;9.80;82.30
58809;DHT22;44579;51.672;7.834;2023-03-14T06:51:23;9.80;82.30
58809;DHT22;44579;51.672;7.834;2023-03-14T06:53:50;9.80;82.40
58809;DHT22;44579;51.672;7.834;2023-03-14T06:56:19;9.80;82.50
58809;DHT22;44579;51.672;7.834;2023-03-14T06:58:47;9.80;82.60
58809;DHT22;44579;51.672;7.834;2023-03-14T07:01:22;9.90;82.70
58809;DHT22;44579;51.672;7.834;2023-03-14T07:03:50;10.00;82.70
58809;DHT22;44579;51.672;7.834;2023-03-14T07:06:17;10.00;82.70
58809;DHT22;44579;51.672;7.834;2023-03-14T07:08:45;10.00;82.60
58809;DHT22;44579;51.672;7.834;2023-03-14T07:11:14;10.10;82.60
58809;DHT22;44579;51.672;7.834;2023-03-14T07:13:41;10.10;82.60
58809;DHT22;44579;51.672;7.834;2023-03-14T07:16:09;10.10;82.80
58809;DHT22;44579;51.672;7.834;2023-03-14T07:18:36;10.10;83.00
58809;DHT22;44579;51.672;7.834;2023-03-14T07:21:08;10.10;82.90
58809;DHT22;44579;51.672;7.834;2023-03-14T07:23:39;10.20;82.90
58809;DHT22;44579;51.672;7.834;2023-03-14T07:26:07;10.30;83.10
58809;DHT22;44579;51.672;7.834;2023-03-14T07:28:36;10.30;83.10
58809;DHT22;44579;51.672;7.834;2023-03-14T07:31:08;10.40;83.20
58809;DHT22;44579;51.672;7.834;2023-03-14T07:33:37;10.40;83.30
58809;DHT22;44579;51.672;7.834;2023-03-14T07:36:04;10.40;83.40
58809;DHT22;44579;51.672;7.834;2023-03-14T07:38:31;10.40;83.50
58809;DHT22;44579;51.672;7.834;2023-03-14T07:41:10;10.50;83.60
58809;DHT22;44579;51.672;7.834;2023-03-14T07:43:45;10.50;83.70
58809;DHT22;44579;51.672;7.834;2023-03-14T07:46:12;10.60;83.80
58809;DHT22;44579;51.672;7.834;2023-03-14T07:48:40;10.60;83.90
58809;DHT22;44579;51.672;7.834;2023-03-14T07:51:07;10.70;84.00
58809;DHT22;44579;51.672;7.834;2023-03-14T07:53:34;10.80;84.20
58809;DHT22;44579;51.672;7.834;2023-03-14T07:56:01;10.80;84.40
58809;DHT22;44579;51.672;7.834;2023-03-14T07:58:28;10.90;84.60
58809;DHT22;44579;51.672;7.834;2023-03-14T08:00:55;10.90;84.80
58809;DHT22;44579;51.672;7.834;2023-03-14T08:03:22;10.90;85.00
58809;DHT22;44579;51.672;7.834;2023-03-14T08:05:49;11.00;85.10
58809;DHT22;44579;51.672;7.834;2023-03-14T08:08:17;11.00;85.20
58809;DHT22;44579;51.672;7.834;2023-03-14T08:10:44;11.00;85.30
58809;DHT22;44579;51.672;7.834;2023-03-14T08:13:10;11.10;85.40
58809;DHT22;44579;51.672;7.834;2023-03-14T08:15:37;11.10;85.40
58809;DHT22;44579;51.672;7.834;2023-03-14T08:18:05;11.20;85.60
58809;DHT22;44579;51.672;7.834;2023-03-14T08:20:32;11.20;85.70
58809;DHT22;44579;51.672;7.834;2023-03-14T08:22:59;11.20;85.70
58809;DHT22;44579;51.672;7.834;2023-03-14T08:25:27;11.20;85.90
58809;DHT22;44579;51.672;7.834;2023-03-14T08:27:54;11.20;85.80
58809;DHT22;44579;51.672;7.834;2023-03-14T08:30:21;11.30;85.90
58809;DHT22;44579;51.672;7.834;2023-03-14T08:32:49;11.30;85.90
58809;DHT22;44579;51.672;7.834;2023-03-14T08:35:16;11.40;86.20
58809;DHT22;44579;51.672;7.834;2023-03-14T08:37:43;11.30;86.40
58809;DHT22;44579;51.672;7.834;2023-03-14T08:40:10;11.40;86.70
58809;DHT22;44579;51.672;7.834;2023-03-14T08:42:38;11.40;86.70
58809;DHT22;44579;51.672;7.834;2023-03-14T08:45:06;11.40;86.70
58809;DHT22;44579;51.672;7.834;2023-03-14T08:47:34;11.50;86.70
58809;DHT22;44579;51.672;7.834;2023-03-14T08:50:01;11.50;86.80
58809;DHT22;44579;51.672;7.834;2023-03-14T08:52:28;11.60;86.80
58809;DHT22;44579;51.672;7.834;2023-03-14T08:54:55;11.60;86.80
58809;DHT22;44579;51.672;7.834;2023-03-14T08:57:22;11.70;87.00
58809;DHT22;44579;51.672;7.834;2023-03-14T08:59:54;11.70;87.20
58809;DHT22;44579;51.672;7.834;2023-03-14T09:02:22;11.70;87.60
58809;DHT22;44579;51.672;7.834;2023-03-14T09:04:49;11.70;87.60
58809;DHT22;44579;51.672;7.834;2023-03-14T09:07:16;11.70;87.60
58809;DHT22;44579;51.672;7.834;2023-03-14T09:09:44;11.70;87.50
58809;DHT22;44579;51.672;7.834;2023-03-14T09:12:11;11.80;87.60
58809;DHT22;44579;51.672;7.834;2023-03-14T09:14:38;11.80;87.60
58809;DHT22;44579;51.672;7.834;2023-03-14T09:17:05;11.80;87.70
58809;DHT22;44579;51.672;7.834;2023-03-14T09:19:32;11.70;87.60
58809;DHT22;44579;51.672;7.834;2023-03-14T09:21:59;11.80;87.60
58809;DHT22;44579;51.672;7.834;2023-03-14T09:24:29;11.70;87.60
58809;DHT22;44579;51.672;7.834;2023-03-14T09:26:57;11.70;87.80
58809;DHT22;44579;51.672;7.834;2023-03-14T09:29:24;11.70;87.90
58809;DHT22;44579;51.672;7.834;2023-03-14T09:31:51;11.60;88.10
58809;DHT22;44579;51.672;7.834;2023-03-14T09:34:18;11.70;88.20
58809;DHT22;44579;51.672;7.834;2023-03-14T09:36:45;11.80;88.40
58809;DHT22;44579;51.672;7.834;2023-03-14T09:39:12;11.90;88.40
58809;DHT22;44579;51.672;7.834;2023-03-14T09:41:40;12.00;88.30
58809;DHT22;44579;51.672;7.834;2023-03-14T09:44:13;12.10;88.20
58809;DHT22;44579;51.672;7.834;2023-03-14T09:46:41;12.10;88.30
58809;DHT22;44579;51.672;7.834;2023-03-14T09:49:10;12.00;88.40
58809;DHT22;44579;51.672;7.834;2023-03-14T09:51:38;12.00;88.50
58809;DHT22;44579;51.672;7.834;2023-03-14T09:54:05;11.90;88.40
58809;DHT22;44579;51.672;7.834;2023-03-14T09:56:41;12.00;88.50
58809;DHT22;44579;51.672;7.834;2023-03-14T09:59:08;11.90;88.40
58809;DHT22;44579;51.672;7.834;2023-03-14T10:01:39;11.80;88.30
58809;DHT22;44579;51.672;7.834;2023-03-14T10:04:10;11.80;88.30
58809;DHT22;44579;51.672;7.834;2023-03-14T10:06:40;11.60;88.40
58809;DHT22;44579;51.672;7.834;2023-03-14T10:09:10;11.50;88.50
58809;DHT22;44579;51.672;7.834;2023-03-14T10:11:39;11.40;88.60
58809;DHT22;44579;51.672;7.834;2023-03-14T10:14:07;11.20;89.50
58809;DHT22;44579;51.672;7.834;2023-03-14T10:16:36;10.90;89.00
58809;DHT22;44579;51.672;7.834;2023-03-14T10:19:05;10.70;89.30
58809;DHT22;44579;51.672;7.834;2023-03-14T10:21:35;10.60;89.50
58809;DHT22;44579;51.672;7.834;2023-03-14T10:24:20;10.50;89.70
58809;DHT22;44579;51.672;7.834;2023-03-14T10:26:48;10.30;89.80
58809;DHT22;44579;51.672;7.834;2023-03-14T10:29:15;10.10;90.40
58809;DHT22;44579;51.672;7.834;2023-03-14T10:31:47;10.00;91.00
58809;DHT22;44579;51.672;7.834;2023-03-14T10:34:16;9.80;91.20
58809;DHT22;44579;51.672;7.834;2023-03-14T10:36:43;9.80;91.20
58809;DHT22;44579;51.672;7.834;2023-03-14T10:42:03;9.70;91.10
58809;DHT22;44579;51.672;7.834;2023-03-14T10:44:30;9.70;91.20
58809;DHT22;44579;51.672;7.834;2023-03-14T10:47:03;9.70;91.40
58809;DHT22;44579;51.672;7.834;2023-03-14T10:49:36;9.60;91.50
58809;DHT22;44579;51.672;7.834;2023-03-14T10:54:39;9.40;91.70
58809;DHT22;44579;51.672;7.834;2023-03-14T10:57:06;9.30;91.70
58809;DHT22;44579;51.672;7.834;2023-03-14T10:59:35;9.20;91.70
58809;DHT22;44579;51.672;7.834;2023-03-14T11:09:50;8.90;91.90
58809;DHT22;44579;51.672;7.834;2023-03-14T11:14:46;8.50;92.20
58809;DHT22;44579;51.672;7.834;2023-03-14T11:17:27;8.20;92.60
58809;DHT22;44579;51.672;7.834;2023-03-14T11:20:04;7.90;92.30
58809;DHT22;44579;51.672;7.834;2023-03-14T11:22:44;7.60;92.50
58809;DHT22;44579;51.672;7.834;2023-03-14T11:28:00;7.30;91.90
58809;DHT22;44579;51.672;7.834;2023-03-14T11:30:54;7.30;91.80
58809;DHT22;44579;51.672;7.834;2023-03-14T11:33:31;7.10;91.70
58809;DHT22;44579;51.672;7.834;2023-03-14T11:36:08;7.10;91.60
58809;DHT22;44579;51.672;7.834;2023-03-14T11:41:41;7.10;91.50
58809;DHT22;44579;51.672;7.834;2023-03-14T11:44:10;7.10;91.10
58809;DHT22;44579;51.672;7.834;2023-03-14T11:46:46;7.10;91.20
58809;DHT22;44579;51.672;7.834;2023-03-14T11:52:18;7.00;90.40
58809;DHT22;44579;51.672;7.834;2023-03-14T11:54:52;7.00;90.00
58809;DHT22;44579;51.672;7.834;2023-03-14T11:57:20;7.00;90.10
58809;DHT22;44579;51.672;7.834;2023-03-14T12:10:14;7.50;88.80
58809;DHT22;44579;51.672;7.834;2023-03-14T12:12:41;7.50;88.10
58809;DHT22;44579;51.672;7.834;2023-03-14T12:15:19;7.40;87.60
58809;DHT22;44579;51.672;7.834;2023-03-14T12:17:46;7.30;87.30
58809;DHT22;44579;51.672;7.834;2023-03-14T12:20:20;7.20;87.30
58809;DHT22;44579;51.672;7.834;2023-03-14T12:23:02;7.10;87.30
58809;DHT22;44579;51.672;7.834;2023-03-14T12:25:33;7.00;87.70
58809;DHT22;44579;51.672;7.834;2023-03-14T12:28:14;7.10;88.20
58809;DHT22;44579;51.672;7.834;2023-03-14T12:30:47;7.20;88.30
58809;DHT22;44579;51.672;7.834;2023-03-14T12:35:47;7.60;87.60
58809;DHT22;44579;51.672;7.834;2023-03-14T12:43:41;7.80;85.70
58809;DHT22;44579;51.672;7.834;2023-03-14T12:46:15;7.90;85.50
58809;DHT22;44579;51.672;7.834;2023-03-14T12:48:49;8.00;85.30
58809;DHT22;44579;51.672;7.834;2023-03-14T12:51:19;8.10;85.30
58809;DHT22;44579;51.672;7.834;2023-03-14T12:56:24;8.20;85.10
58809;DHT22;44579;51.672;7.834;2023-03-14T13:01:26;8.40;84.50
58809;DHT22;44579;51.672;7.834;2023-03-14T13:03:55;8.40;84.30
58809;DHT22;44579;51.672;7.834;2023-03-14T13:11:54;7.90;83.90
58809;DHT22;44579;51.672;7.834;2023-03-14T13:14:24;7.80;84.20
58809;DHT22;44579;51.672;7.834;2023-03-14T13:16:55;7.70;83.90
58809;DHT22;44579;51.672;7.834;2023-03-14T13:19:23;7.60;83.70
58809;DHT22;44579;51.672;7.834;2023-03-14T13:21:51;7.60;83.30
58809;DHT22;44579;51.672;7.834;2023-03-14T13:24:21;7.70;83.90
58809;DHT22;44579;51.672;7.834;2023-03-14T13:26:48;7.80;83.50
58809;DHT22;44579;51.672;7.834;2023-03-14T13:29:25;7.80;83.30
58809;DHT22;44579;51.672;7.834;2023-03-14T13:31:53;7.80;83.60
58809;DHT22;44579;51.672;7.834;2023-03-14T13:34:20;7.70;83.20
58809;DHT22;44579;51.672;7.834;2023-03-14T13:36:51;7.70;83.60
58809;DHT22;44579;51.672;7.834;2023-03-14T13:39:19;7.60;83.70
58809;DHT22;44579;51.672;7.834;2023-03-14T13:41:48;7.60;84.20
58809;DHT22;44579;51.672;7.834;2023-03-14T13:44:16;7.60;84.00
58809;DHT22;44579;51.672;7.834;2023-03-14T13:46:44;7.70;84.00
58809;DHT22;44579;51.672;7.834;2023-03-14T13:49:13;7.90;83.70
58809;DHT22;44579;51.672;7.834;2023-03-14T13:51:45;8.00;82.70
58809;DHT22;44579;51.672;7.834;2023-03-14T13:54:15;8.00;82.60
58809;DHT22;44579;51.672;7.834;2023-03-14T13:56:43;8.10;82.40
58809;DHT22;44579;51.672;7.834;2023-03-14T13:59:23;8.00;81.70
58809;DHT22;44579;51.672;7.834;2023-03-14T14:01:50;8.00;81.80
58809;DHT22;44579;51.672;7.834;2023-03-14T14:04:18;8.10;81.60
58809;DHT22;44579;51.672;7.834;2023-03-14T14:09:26;8.20;80.80
58809;DHT22;44579;51.672;7.834;2023-03-14T14:12:08;8.30;80.40
58809;DHT22;44579;51.672;7.834;2023-03-14T14:14:43;8.40;80.10
58809;DHT22;44579;51.672;7.834;2023-03-14T14:17:13;8.50;79.30
58809;DHT22;44579;51.672;7.834;2023-03-14T14:19:41;8.40;78.60
58809;DHT22;44579;51.672;7.834;2023-03-14T14:22:09;8.30;78.70
58809;DHT22;44579;51.672;7.834;2023-03-14T14:24:37;8.20;79.50
58809;DHT22;44579;51.672;7.834;2023-03-14T14:27:10;8.20;78.80
58809;DHT22;44579;51.672;7.834;2023-03-14T14:29:39;8.20;78.60
58809;DHT22;44579;51.672;7.834;2023-03-14T14:34:40;8.20;79.10
58809;DHT22;44579;51.672;7.834;2023-03-14T14:39:44;8.30;78.60
58809;DHT22;44579;51.672;7.834;2023-03-14T14:42:15;8.40;78.80
58809;DHT22;44579;51.672;7.834;2023-03-14T14:44:43;8.50;78.30
58809;DHT22;44579;51.672;7.834;2023-03-14T14:47:14;8.40;77.00
58809;DHT22;44579;51.672;7.834;2023-03-14T14:49:43;8.50;75.60
58809;DHT22;44579;51.672;7.834;2023-03-14T14:52:12;8.50;75.10
58809;DHT22;44579;51.672;7.834;2023-03-14T14:54:47;8.50;74.00
58809;DHT22;44579;51.672;7.834;2023-03-14T14:57:18;8.50;71.80
58809;DHT22;44579;51.672;7.834;2023-03-14T14:59:47;8.50;71.80
58809;DHT22;44579;51.672;7.834;2023-03-14T15:02:32;8.50;70.50
58809;DHT22;44579;51.672;7.834;2023-03-14T15:05:01;8.60;70.50
58809;DHT22;44579;51.672;7.834;2023-03-14T15:07:28;8.60;69.90
58809;DHT22;44579;51.672;7.834;2023-03-14T15:09:57;8.60;69.00
58809;DHT22;44579;51.672;7.834;2023-03-14T15:12:24;8.60;67.30
58809;DHT22;44579;51.672;7.834;2023-03-14T15:14:51;8.60;67.20
58809;DHT22;44579;51.672;7.834;2023-03-14T15:17:18;8.70;67.50
58809;DHT22;44579;51.672;7.834;2023-03-14T15:19:45;8.80;66.50
58809;DHT22;44579;51.672;7.834;2023-03-14T15:22:12;8.80;66.40
58809;DHT22;44579;51.672;7.834;2023-03-14T15:24:41;8.80;65.50
58809;DHT22;44579;51.672;7.834;2023-03-14T15:27:14;8.70;64.50
58809;DHT22;44579;51.672;7.834;2023-03-14T15:29:42;8.80;65.10
58809;DHT22;44579;51.672;7.834;2023-03-14T15:32:11;8.80;65.20
58809;DHT22;44579;51.672;7.834;2023-03-14T15:34:39;8.70;63.80
58809;DHT22;44579;51.672;7.834;2023-03-14T15:37:15;8.60;64.00
58809;DHT22;44579;51.672;7.834;2023-03-14T15:39:43;8.70;64.50
58809;DHT22;44579;51.672;7.834;2023-03-14T15:42:10;8.70;64.50
58809;DHT22;44579;51.672;7.834;2023-03-14T15:44:37;8.70;63.80
58809;DHT22;44579;51.672;7.834;2023-03-14T15:47:05;8.70;63.70
58809;DHT22;44579;51.672;7.834;2023-03-14T15:49:36;8.60;62.20
58809;DHT22;44579;51.672;7.834;2023-03-14T15:52:05;8.60;63.40
58809;DHT22;44579;51.672;7.834;2023-03-14T15:54:34;8.40;61.90
58809;DHT22;44579;51.672;7.834;2023-03-14T15:57:02;8.30;60.30
58809;DHT22;44579;51.672;7.834;2023-03-14T15:59:29;8.20;59.20
58809;DHT22;44579;51.672;7.834;2023-03-14T16:01:56;8.00;58.80
58809;DHT22;44579;51.672;7.834;2023-03-14T16:04:26;8.00;59.30
58809;DHT22;44579;51.672;7.834;2023-03-14T16:06:56;7.90;59.20
58809;DHT22;44579;51.672;7.834;2023-03-14T16:09:24;7.90;59.60
58809;DHT22;44579;51.672;7.834;2023-03-14T16:11:53;7.80;59.40
58809;DHT22;44579;51.672;7.834;2023-03-14T16:14:23;7.80;59.10
58809;DHT22;44579;51.672;7.834;2023-03-14T16:16:51;7.80;59.40
58809;DHT22;44579;51.672;7.834;2023-03-14T16:19:21;7.80;59.40
58809;DHT22;44579;51.672;7.834;2023-03-14T16:21:52;7.80;59.60
58809;DHT22;44579;51.672;7.834;2023-03-14T16:24:19;7.90;60.10
58809;DHT22;44579;51.672;7.834;2023-03-14T16:26:46;7.90;60.50
58809;DHT22;44579;51.672;7.834;2023-03-14T16:29:17;7.80;60.30
58809;DHT22;44579;51.672;7.834;2023-03-14T16:31:46;7.80;60.00
58809;DHT22;44579;51.672;7.834;2023-03-14T16:34:18;7.80;60.70
58809;DHT22;44579;51.672;7.834;2023-03-14T16:36:47;7.80;60.80
58809;DHT22;44579;51.672;7.834;2023-03-14T16:39:25;7.80;60.30
58809;DHT22;44579;51.672;7.834;2023-03-14T16:41:55;7.70;60.30
58809;DHT22;44579;51.672;7.834;2023-03-14T16:44:24;7.70;60.70
58809;DHT22;44579;51.672;7.834;2023-03-14T16:47:00;7.70;60.90
58809;DHT22;44579;51.672;7.834;2023-03-14T16:49:32;7.70;61.20
58809;DHT22;44579;51.672;7.834;2023-03-14T16:51:59;7.70;61.70
58809;DHT22;44579;51.672;7.834;2023-03-14T16:54:26;7.70;61.90
58809;DHT22;44579;51.672;7.834;2023-03-14T16:56:54;7.70;62.30
58809;DHT22;44579;51.672;7.834;2023-03-14T16:59:27;7.70;62.70
58809;DHT22;44579;51.672;7.834;2023-03-14T17:01:55;7.70;62.90
58809;DHT22;44579;51.672;7.834;2023-03-14T17:04:27;7.70;63.20
58809;DHT22;44579;51.672;7.834;2023-03-14T17:07:10;7.70;63.30